Syouhakumaru — JD4259 — position and weather

sailwx.info

Track history (hours):
 
Tides and Currents Weather Stations Pressure Air Temp Water Temp Dewpoint Dewpoint Depression Visibility Wind Speed Wind Dir Waves Ship Positions

Syouhakumaru

Last reported at 2018-Jan-20 08:29 UTC. Time now 2018-Jan-20 18:31 UTC.
Position N 35°01' E 140°12'.

Length 79 m; draft 4 m.

Type: Cargo ship. MMSI: 431010062.

Date/timePositionNaut miles runAvg speedWind from/ knotsBaromVisibWave heightAir tempDewpointWater temp
2018-Jan-20 08:29N 35°01' E 140°12'611.9
2018-Jan-20 07:59N 34°58' E 140°06'611.9
2018-Jan-20 07:29N 34°55' E 139°60'911.4
2018-Jan-20 06:44N 34°53' E 139°49'210.4
2018-Jan-20 06:30N 34°54' E 139°47'510.4
2018-Jan-20 05:59N 34°59' E 139°44'611.8
2018-Jan-20 05:30N 35°05' E 139°45'611.7
2018-Jan-20 05:01N 35°11' E 139°46'611.5
2018-Jan-20 04:31N 35°16' E 139°46'611.6
2018-Jan-20 04:01N 35°21' E 139°42'611.1
2018-Jan-20 03:30N 35°26' E 139°46'611.7
2018-Jan-20 03:00N 35°30' E 139°52'711.8
2018-Jan-20 02:25N 35°32' E 139°60'511.3
2018-Jan-20 02:00N 35°33' E 140°05'1 2.6
2018-Jan-20 01:31N 35°33' E 140°07'0 0.0
2018-Jan-20 00:45N 35°33' E 140°07'0 0.0
2018-Jan-20 00:27N 35°33' E 140°07'0 0.0
2018-Jan-19 23:57N 35°33' E 140°07'0 0.0
2018-Jan-19 23:27N 35°33' E 140°07'0 0.0
2018-Jan-19 22:57N 35°33' E 140°07'0 0.0
2018-Jan-19 22:27N 35°33' E 140°07'0 0.0
2018-Jan-19 21:57N 35°33' E 140°07'0 0.0
2018-Jan-19 21:27N 35°33' E 140°07'0 0.0
2018-Jan-19 20:51N 35°33' E 140°07'0 0.0
2018-Jan-19 20:27N 35°33' E 140°07'0 0.0
2018-Jan-19 19:57N 35°33' E 140°07'0 0.0
2018-Jan-19 19:27N 35°33' E 140°07'0 0.0
2018-Jan-19 18:57N 35°33' E 140°07'0 0.0
2018-Jan-19 18:21N 35°33' E 140°07'0 0.0
2018-Jan-19 17:57N 35°33' E 140°07'0 0.0
2018-Jan-19 17:21N 35°33' E 140°07'0 0.0
2018-Jan-19 16:45N 35°33' E 140°07'0 0.0
2018-Jan-19 16:27N 35°33' E 140°07'0 0.0
2018-Jan-19 15:57N 35°33' E 140°07'0 0.0
2018-Jan-19 15:27N 35°33' E 140°07'0 0.0
2018-Jan-19 14:57N 35°33' E 140°07'0 0.0
2018-Jan-19 14:27N 35°33' E 140°07'0 0.0
2018-Jan-19 13:57N 35°33' E 140°07'0 0.0
2018-Jan-19 13:27N 35°33' E 140°07'0 0.0
2018-Jan-19 12:51N 35°33' E 140°07'0 0.0
2018-Jan-19 12:27N 35°33' E 140°07'0 0.0
2018-Jan-19 11:57N 35°33' E 140°07'0 0.0
2018-Jan-19 11:21N 35°33' E 140°07'0 0.0
2018-Jan-19 10:51N 35°33' E 140°07'0 0.0
2018-Jan-19 10:27N 35°33' E 140°07'0 0.0
2018-Jan-19 09:57N 35°33' E 140°07'0 0.0
2018-Jan-19 09:27N 35°33' E 140°07'0 0.0
2018-Jan-19 08:51N 35°33' E 140°07'0 0.0
2018-Jan-19 08:27N 35°33' E 140°07'0 0.0
2018-Jan-19 07:57N 35°33' E 140°07'0 0.0
2018-Jan-19 07:27N 35°33' E 140°07'0 0.0
2018-Jan-19 06:51N 35°33' E 140°07'0 0.0
2018-Jan-19 06:27N 35°33' E 140°07'0 0.0
2018-Jan-19 05:57N 35°33' E 140°07'0 0.0
2018-Jan-19 02:30N 35°33' E 140°07'0 0.0
2018-Jan-19 02:00N 35°33' E 140°07'0 0.0
2018-Jan-19 01:12N 35°33' E 140°07'0 0.0
2018-Jan-19 01:00N 35°33' E 140°07'0 0.0
2018-Jan-18 23:54N 35°33' E 140°07'0 0.0
2018-Jan-18 23:24N 35°33' E 140°07'0 0.2
2018-Jan-18 23:01N 35°33' E 140°07'3 5.4
2018-Jan-18 22:30N 35°34' E 140°04'1 2.0
2018-Jan-18 22:00N 35°34' E 140°02'4 7.5
2018-Jan-18 21:30N 35°36' E 139°59'4 7.4
2018-Jan-18 20:55N 35°40' E 139°57'  
2018-Jan-12 14:58N 35°34' E 140°03'0 0.0
2018-Jan-12 14:28N 35°34' E 140°03'0 0.0
2018-Jan-12 13:58N 35°34' E 140°03'0 0.0
2018-Jan-12 13:25N 35°34' E 140°03'0 0.0
2018-Jan-12 12:58N 35°34' E 140°03'0 0.0
2018-Jan-12 12:28N 35°34' E 140°03'0 0.0
2018-Jan-12 11:58N 35°34' E 140°03'0 0.0
2018-Jan-12 11:28N 35°34' E 140°03'0 0.0
2018-Jan-12 10:55N 35°34' E 140°03'0 0.0
2018-Jan-12 10:28N 35°34' E 140°03'0 0.0
2018-Jan-12 09:55N 35°34' E 140°03'0 0.0
2018-Jan-12 09:28N 35°35' E 140°03'0 0.0
2018-Jan-12 08:58N 35°35' E 140°03'0 0.0
2018-Jan-12 08:25N 35°35' E 140°03'0 0.0
2018-Jan-12 07:58N 35°35' E 140°03'0 0.1
2018-Jan-12 07:25N 35°34' E 140°03'0 0.0
2018-Jan-12 06:55N 35°34' E 140°03'0 0.0
2018-Jan-12 06:28N 35°34' E 140°03'0 0.0
2018-Jan-12 05:58N 35°34' E 140°03'0 0.0
2018-Jan-12 05:28N 35°34' E 140°03'0 0.1
2018-Jan-12 04:55N 35°34' E 140°03'0 0.0
2018-Jan-12 04:28N 35°34' E 140°03'0 0.0
2018-Jan-12 03:58N 35°34' E 140°03'0 0.0
2018-Jan-12 03:28N 35°34' E 140°03'0 0.0
2018-Jan-12 02:58N 35°34' E 140°03'0 0.0
2018-Jan-12 02:28N 35°34' E 140°03'0 0.0
2018-Jan-12 01:55N 35°34' E 140°03'0 0.0
2018-Jan-12 01:28N 35°34' E 140°03'0 0.0
2018-Jan-12 00:58N 35°34' E 140°03'0 0.1
2018-Jan-12 00:28N 35°34' E 140°03'0 0.0
2018-Jan-11 23:58N 35°34' E 140°03'0 0.1
2018-Jan-11 23:28N 35°34' E 140°03'0 0.0
2018-Jan-11 22:55N 35°34' E 140°03'0 0.0
2018-Jan-11 22:25N 35°34' E 140°03'0 0.0
2018-Jan-11 21:58N 35°34' E 140°03'0 0.0
2018-Jan-11 21:28N 35°34' E 140°03'0 0.0
2018-Jan-11 20:58N 35°34' E 140°03'0 0.0
2018-Jan-11 20:28N 35°34' E 140°03'0 0.0
2018-Jan-11 19:55N 35°34' E 140°03'0 0.1
2018-Jan-11 19:25N 35°34' E 140°03'0 0.1
2018-Jan-11 18:58N 35°35' E 140°03'0 0.0
2018-Jan-11 18:25N 35°35' E 140°03'0 0.0
2018-Jan-11 17:58N 35°35' E 140°03'0 0.0
2018-Jan-11 17:25N 35°35' E 140°03'0 0.0
2018-Jan-11 16:58N 35°35' E 140°03'0 0.0
2018-Jan-11 16:28N 35°35' E 140°03'2 4.4
2018-Jan-11 16:01N 35°34' E 140°01'610.7
2018-Jan-11 15:30N 35°31' E 139°55'510.9
2018-Jan-11 15:00N 35°27' E 139°50'611.1
2018-Jan-11 14:30N 35°23' E 139°46'510.6
2018-Jan-11 14:00N 35°18' E 139°45'510.6
2018-Jan-11 13:30N 35°13' E 139°47'511.0
2018-Jan-11 13:00N 35°07' E 139°46'5 9.6
2018-Jan-11 12:31N 35°04' E 139°42'611.4
2018-Jan-11 12:01N 35°02' E 139°35'711.2
2018-Jan-11 11:25N 34°60' E 139°28'511.3
2018-Jan-11 11:00N 34°58' E 139°23'611.2
2018-Jan-11 10:30N 34°56' E 139°16'510.2
2018-Jan-11 09:59N 34°53' E 139°11'510.4
2018-Jan-11 09:30N 34°48' E 139°08'610.7
2018-Jan-11 08:59N 34°44' E 139°05'511.2
2018-Jan-11 08:30N 34°39' E 139°01'612.0
2018-Jan-11 08:01N 34°35' E 138°55'612.9
2018-Jan-11 07:30N 34°35' E 138°47'612.2
2018-Jan-11 07:00N 34°35' E 138°40'611.4
2018-Jan-11 06:30N 34°34' E 138°33'610.6
2018-Jan-11 05:58N 34°34' E 138°26'510.9
2018-Jan-11 05:30N 34°34' E 138°20'611.3
2018-Jan-11 04:58N 34°34' E 138°13'711.9
2018-Jan-11 04:25N 34°35' E 138°05'511.4
2018-Jan-11 04:00N 34°35' E 137°59'3511.1
2018-Jan-11 00:53N 34°32' E 137°17'411.6
2018-Jan-11 00:30N 34°32' E 137°12'3110.2
2018-Jan-10 21:29N 34°10' E 136°47'87 8.4
2018-Jan-10 11:06N 33°46' E 135°05'211.9
2018-Jan-10 10:59N 33°47' E 135°04'611.6
2018-Jan-10 10:30N 33°50' E 134°58'611.6
2018-Jan-10 10:00N 33°53' E 134°52'611.5
2018-Jan-10 09:27N 33°58' E 134°48'511.8
2018-Jan-10 09:01N 34°03' E 134°46'611.5
2018-Jan-10 08:29N 34°09' E 134°43'  
Track history (hours):
 
Tides and Currents Weather Stations Pressure Air Temp Water Temp Dewpoint Dewpoint Depression Visibility Wind Speed Wind Dir Waves Ship Positions

Syouhakumaru

Last reported at 2018-Jan-20 08:29 UTC. Time now 2018-Jan-20 18:31 UTC.
Position N 35°01' E 140°12'.

Length 79 m; draft 4 m.

Type: Cargo ship. MMSI: 431010062.

Date/timePositionNaut miles runAvg speedWind from/ knotsBaromVisibWave heightAir tempDewpointWater temp
2018-Jan-20 08:29N 35°01' E 140°12'611.9
2018-Jan-20 07:59N 34°58' E 140°06'611.9
2018-Jan-20 07:29N 34°55' E 139°60'911.4
2018-Jan-20 06:44N 34°53' E 139°49'210.4
2018-Jan-20 06:30N 34°54' E 139°47'510.4
2018-Jan-20 05:59N 34°59' E 139°44'611.8
2018-Jan-20 05:30N 35°05' E 139°45'611.7
2018-Jan-20 05:01N 35°11' E 139°46'611.5
2018-Jan-20 04:31N 35°16' E 139°46'611.6
2018-Jan-20 04:01N 35°21' E 139°42'611.1
2018-Jan-20 03:30N 35°26' E 139°46'611.7
2018-Jan-20 03:00N 35°30' E 139°52'711.8
2018-Jan-20 02:25N 35°32' E 139°60'511.3
2018-Jan-20 02:00N 35°33' E 140°05'1 2.6
2018-Jan-20 01:31N 35°33' E 140°07'0 0.0
2018-Jan-20 00:45N 35°33' E 140°07'0 0.0
2018-Jan-20 00:27N 35°33' E 140°07'0 0.0
2018-Jan-19 23:57N 35°33' E 140°07'0 0.0
2018-Jan-19 23:27N 35°33' E 140°07'0 0.0
2018-Jan-19 22:57N 35°33' E 140°07'0 0.0
2018-Jan-19 22:27N 35°33' E 140°07'0 0.0
2018-Jan-19 21:57N 35°33' E 140°07'0 0.0
2018-Jan-19 21:27N 35°33' E 140°07'0 0.0
2018-Jan-19 20:51N 35°33' E 140°07'0 0.0
2018-Jan-19 20:27N 35°33' E 140°07'0 0.0
2018-Jan-19 19:57N 35°33' E 140°07'0 0.0
2018-Jan-19 19:27N 35°33' E 140°07'0 0.0
2018-Jan-19 18:57N 35°33' E 140°07'0 0.0
2018-Jan-19 18:21N 35°33' E 140°07'0 0.0
2018-Jan-19 17:57N 35°33' E 140°07'0 0.0
2018-Jan-19 17:21N 35°33' E 140°07'0 0.0
2018-Jan-19 16:45N 35°33' E 140°07'0 0.0
2018-Jan-19 16:27N 35°33' E 140°07'0 0.0
2018-Jan-19 15:57N 35°33' E 140°07'0 0.0
2018-Jan-19 15:27N 35°33' E 140°07'0 0.0
2018-Jan-19 14:57N 35°33' E 140°07'0 0.0
2018-Jan-19 14:27N 35°33' E 140°07'0 0.0
2018-Jan-19 13:57N 35°33' E 140°07'0 0.0
2018-Jan-19 13:27N 35°33' E 140°07'0 0.0
2018-Jan-19 12:51N 35°33' E 140°07'0 0.0
2018-Jan-19 12:27N 35°33' E 140°07'0 0.0
2018-Jan-19 11:57N 35°33' E 140°07'0 0.0
2018-Jan-19 11:21N 35°33' E 140°07'0 0.0
2018-Jan-19 10:51N 35°33' E 140°07'0 0.0
2018-Jan-19 10:27N 35°33' E 140°07'0 0.0
2018-Jan-19 09:57N 35°33' E 140°07'0 0.0
2018-Jan-19 09:27N 35°33' E 140°07'0 0.0
2018-Jan-19 08:51N 35°33' E 140°07'0 0.0
2018-Jan-19 08:27N 35°33' E 140°07'0 0.0
2018-Jan-19 07:57N 35°33' E 140°07'0 0.0
2018-Jan-19 07:27N 35°33' E 140°07'0 0.0
2018-Jan-19 06:51N 35°33' E 140°07'0 0.0
2018-Jan-19 06:27N 35°33' E 140°07'0 0.0
2018-Jan-19 05:57N 35°33' E 140°07'0 0.0
2018-Jan-19 02:30N 35°33' E 140°07'0 0.0
2018-Jan-19 02:00N 35°33' E 140°07'0 0.0
2018-Jan-19 01:12N 35°33' E 140°07'0 0.0
2018-Jan-19 01:00N 35°33' E 140°07'0 0.0
2018-Jan-18 23:54N 35°33' E 140°07'0 0.0
2018-Jan-18 23:24N 35°33' E 140°07'0 0.2
2018-Jan-18 23:01N 35°33' E 140°07'3 5.4
2018-Jan-18 22:30N 35°34' E 140°04'1 2.0
2018-Jan-18 22:00N 35°34' E 140°02'4 7.5
2018-Jan-18 21:30N 35°36' E 139°59'4 7.4
2018-Jan-18 20:55N 35°40' E 139°57'  
2018-Jan-12 14:58N 35°34' E 140°03'0 0.0
2018-Jan-12 14:28N 35°34' E 140°03'0 0.0
2018-Jan-12 13:58N 35°34' E 140°03'0 0.0
2018-Jan-12 13:25N 35°34' E 140°03'0 0.0
2018-Jan-12 12:58N 35°34' E 140°03'0 0.0
2018-Jan-12 12:28N 35°34' E 140°03'0 0.0
2018-Jan-12 11:58N 35°34' E 140°03'0 0.0
2018-Jan-12 11:28N 35°34' E 140°03'0 0.0
2018-Jan-12 10:55N 35°34' E 140°03'0 0.0
2018-Jan-12 10:28N 35°34' E 140°03'0 0.0
2018-Jan-12 09:55N 35°34' E 140°03'0 0.0
2018-Jan-12 09:28N 35°35' E 140°03'0 0.0
2018-Jan-12 08:58N 35°35' E 140°03'0 0.0
2018-Jan-12 08:25N 35°35' E 140°03'0 0.0
2018-Jan-12 07:58N 35°35' E 140°03'0 0.1
2018-Jan-12 07:25N 35°34' E 140°03'0 0.0
2018-Jan-12 06:55N 35°34' E 140°03'0 0.0
2018-Jan-12 06:28N 35°34' E 140°03'0 0.0
2018-Jan-12 05:58N 35°34' E 140°03'0 0.0
2018-Jan-12 05:28N 35°34' E 140°03'0 0.1
2018-Jan-12 04:55N 35°34' E 140°03'0 0.0
2018-Jan-12 04:28N 35°34' E 140°03'0 0.0
2018-Jan-12 03:58N 35°34' E 140°03'0 0.0
2018-Jan-12 03:28N 35°34' E 140°03'0 0.0
2018-Jan-12 02:58N 35°34' E 140°03'0 0.0
2018-Jan-12 02:28N 35°34' E 140°03'0 0.0
2018-Jan-12 01:55N 35°34' E 140°03'0 0.0
2018-Jan-12 01:28N 35°34' E 140°03'0 0.0
2018-Jan-12 00:58N 35°34' E 140°03'0 0.1
2018-Jan-12 00:28N 35°34' E 140°03'0 0.0
2018-Jan-11 23:58N 35°34' E 140°03'0 0.1
2018-Jan-11 23:28N 35°34' E 140°03'0 0.0
2018-Jan-11 22:55N 35°34' E 140°03'0 0.0
2018-Jan-11 22:25N 35°34' E 140°03'0 0.0
2018-Jan-11 21:58N 35°34' E 140°03'0 0.0
2018-Jan-11 21:28N 35°34' E 140°03'0 0.0
2018-Jan-11 20:58N 35°34' E 140°03'0 0.0
2018-Jan-11 20:28N 35°34' E 140°03'0 0.0
2018-Jan-11 19:55N 35°34' E 140°03'0 0.1
2018-Jan-11 19:25N 35°34' E 140°03'0 0.1
2018-Jan-11 18:58N 35°35' E 140°03'0 0.0
2018-Jan-11 18:25N 35°35' E 140°03'0 0.0
2018-Jan-11 17:58N 35°35' E 140°03'0 0.0
2018-Jan-11 17:25N 35°35' E 140°03'0 0.0
2018-Jan-11 16:58N 35°35' E 140°03'0 0.0
2018-Jan-11 16:28N 35°35' E 140°03'2 4.4
2018-Jan-11 16:01N 35°34' E 140°01'610.7
2018-Jan-11 15:30N 35°31' E 139°55'510.9
2018-Jan-11 15:00N 35°27' E 139°50'611.1
2018-Jan-11 14:30N 35°23' E 139°46'510.6
2018-Jan-11 14:00N 35°18' E 139°45'510.6
2018-Jan-11 13:30N 35°13' E 139°47'511.0
2018-Jan-11 13:00N 35°07' E 139°46'5 9.6
2018-Jan-11 12:31N 35°04' E 139°42'611.4
2018-Jan-11 12:01N 35°02' E 139°35'711.2
2018-Jan-11 11:25N 34°60' E 139°28'511.3
2018-Jan-11 11:00N 34°58' E 139°23'611.2
2018-Jan-11 10:30N 34°56' E 139°16'510.2
2018-Jan-11 09:59N 34°53' E 139°11'510.4
2018-Jan-11 09:30N 34°48' E 139°08'610.7
2018-Jan-11 08:59N 34°44' E 139°05'511.2
2018-Jan-11 08:30N 34°39' E 139°01'612.0
2018-Jan-11 08:01N 34°35' E 138°55'612.9
2018-Jan-11 07:30N 34°35' E 138°47'612.2
2018-Jan-11 07:00N 34°35' E 138°40'611.4
2018-Jan-11 06:30N 34°34' E 138°33'610.6
2018-Jan-11 05:58N 34°34' E 138°26'510.9
2018-Jan-11 05:30N 34°34' E 138°20'611.3
2018-Jan-11 04:58N 34°34' E 138°13'711.9
2018-Jan-11 04:25N 34°35' E 138°05'511.4
2018-Jan-11 04:00N 34°35' E 137°59'3511.1
2018-Jan-11 00:53N 34°32' E 137°17'411.6
2018-Jan-11 00:30N 34°32' E 137°12'3110.2
2018-Jan-10 21:29N 34°10' E 136°47'87 8.4
2018-Jan-10 11:06N 33°46' E 135°05'211.9
2018-Jan-10 10:59N 33°47' E 135°04'611.6
2018-Jan-10 10:30N 33°50' E 134°58'611.6
2018-Jan-10 10:00N 33°53' E 134°52'611.5
2018-Jan-10 09:27N 33°58' E 134°48'511.8
2018-Jan-10 09:01N 34°03' E 134°46'611.5
2018-Jan-10 08:29N 34°09' E 134°43'  

Dump ship's entire track history